Vremea acum in Beclean - Romania

Vrei sa afli care e starea vremii acum in Bistrita-Nasaud - Romania? Dorim sa iti furnizam starea vremii pentru Bistrita-Nasaud - Romania. Starea vremii Bistrita-Nasaud - Romania pentru astazi.

Vremea acum in Beclean

Temperatura: 27.3 °C

Este: Senin
Se simte ca: 28 °C
Innorat: 0 %
Precipitatii: 0 %
Presiune atmosferica: 1011 hPa
Umiditate: 23%
Vizibilitate: 10 km
Vantul bate din SSE cu 3.6 km/h

Evolutia vremii in Beclean pe ore

Ora: 18:00
Senin
Temperatura: 23.5°C
Sansa de precipitatii: 0%
Ora Descriere Temp Se simte Precipitatii Umiditate Vant
00:00Senin9.4°9.4°0%79%NNW 2.2 KM/H
01:00Senin8.9°8.9°0%80%NNE 1.8 KM/H
02:00Senin8.4°8.4°0%81%ENE 2.5 KM/H
03:00Senin0%82%E 2.9 KM/H
04:00Senin7.6°7.5°0%84%E 3.6 KM/H
05:00Senin7.2°6.9°0%85%ESE 4 KM/H
06:00Senin6.7°6.5°0%86%ESE 4 KM/H
07:00Senin7.6°7.3°0%85%ESE 4.3 KM/H
08:00Senin12°12.1°0%77%ESE 5 KM/H
09:00Senin14.2°14.3°0%70%ESE 6.5 KM/H
10:00Senin16.2°16.2°0%65%ESE 7.9 KM/H
11:00Senin18°18°0%61%SE 9.7 KM/H
12:00Senin20.2°20.2°0%52%SE 8.3 KM/H
13:00Senin21.6°21.6°0%48%SSE 7.9 KM/H
14:00Senin22.6°24.5°0%45%SSE 7.9 KM/H
15:00Senin23.4°24.6°0%42%SE 8.3 KM/H
16:00Senin23.7°24.6°0%39%SE 7.9 KM/H
17:00Senin23.7°24.5°0%37%SE 6.5 KM/H
18:00Senin23.5°24.5°0%38%S 4.3 KM/H
19:00Senin27.3°24.5°0%23%SSE 3.6 KM/H
20:00Senin16.9°16.9°0%53%ESE 3.6 KM/H
21:00Senin14.2°14.2°0%54%ESE 2.5 KM/H
22:00Senin13.2°13.9°0%56%ESE 3.2 KM/H
23:00Senin12.1°12.1°0%60%ESE 2.5 KM/H




tutorials